sensor_id;sensor_type;location;lat;lon;timestamp;temperature;humidity
19906;DHT22;10115;50.906;4.438;2023-01-30T00:00:35;4.80;99.90
19906;DHT22;10115;50.906;4.438;2023-01-30T00:03:01;4.80;99.90
19906;DHT22;10115;50.906;4.438;2023-01-30T00:05:26;4.80;99.90
19906;DHT22;10115;50.906;4.438;2023-01-30T00:07:52;4.80;99.90
19906;DHT22;10115;50.906;4.438;2023-01-30T00:10:18;4.70;99.90
19906;DHT22;10115;50.906;4.438;2023-01-30T00:12:44;4.70;99.90
19906;DHT22;10115;50.906;4.438;2023-01-30T00:15:09;4.70;99.90
19906;DHT22;10115;50.906;4.438;2023-01-30T00:17:35;4.80;99.90
19906;DHT22;10115;50.906;4.438;2023-01-30T00:20:01;4.70;99.90
19906;DHT22;10115;50.906;4.438;2023-01-30T00:22:27;4.70;99.90
19906;DHT22;10115;50.906;4.438;2023-01-30T00:24:52;4.70;99.90
19906;DHT22;10115;50.906;4.438;2023-01-30T00:27:18;4.70;99.90
19906;DHT22;10115;50.906;4.438;2023-01-30T00:29:44;4.70;99.90
19906;DHT22;10115;50.906;4.438;2023-01-30T00:32:09;4.70;99.90
19906;DHT22;10115;50.906;4.438;2023-01-30T00:34:35;4.70;99.90
19906;DHT22;10115;50.906;4.438;2023-01-30T00:37:00;4.70;99.90
19906;DHT22;10115;50.906;4.438;2023-01-30T00:39:26;4.70;99.90
19906;DHT22;10115;50.906;4.438;2023-01-30T00:41:52;4.80;99.90
19906;DHT22;10115;50.906;4.438;2023-01-30T00:44:36;4.70;99.90
19906;DHT22;10115;50.906;4.438;2023-01-30T00:47:20;4.80;99.90
19906;DHT22;10115;50.906;4.438;2023-01-30T00:49:47;4.70;99.90
19906;DHT22;10115;50.906;4.438;2023-01-30T00:52:12;4.80;99.90
19906;DHT22;10115;50.906;4.438;2023-01-30T00:54:38;4.80;99.90
19906;DHT22;10115;50.906;4.438;2023-01-30T00:57:04;4.90;99.90
19906;DHT22;10115;50.906;4.438;2023-01-30T00:59:32;4.90;99.90
19906;DHT22;10115;50.906;4.438;2023-01-30T01:01:58;4.90;99.90
19906;DHT22;10115;50.906;4.438;2023-01-30T01:04:24;4.90;99.90
19906;DHT22;10115;50.906;4.438;2023-01-30T01:06:49;4.90;99.90
19906;DHT22;10115;50.906;4.438;2023-01-30T01:09:15;5.00;99.90
19906;DHT22;10115;50.906;4.438;2023-01-30T01:11:41;5.00;99.90
19906;DHT22;10115;50.906;4.438;2023-01-30T01:14:07;5.00;99.90
19906;DHT22;10115;50.906;4.438;2023-01-30T01:16:34;5.00;99.90
19906;DHT22;10115;50.906;4.438;2023-01-30T01:19:00;5.00;99.90
19906;DHT22;10115;50.906;4.438;2023-01-30T01:21:26;5.00;99.90
19906;DHT22;10115;50.906;4.438;2023-01-30T01:23:53;5.00;99.90
19906;DHT22;10115;50.906;4.438;2023-01-30T01:26:20;5.10;99.90
19906;DHT22;10115;50.906;4.438;2023-01-30T01:28:46;5.10;99.90
19906;DHT22;10115;50.906;4.438;2023-01-30T01:31:13;5.10;99.90
19906;DHT22;10115;50.906;4.438;2023-01-30T01:33:39;5.10;99.90
19906;DHT22;10115;50.906;4.438;2023-01-30T01:36:06;5.10;99.90
19906;DHT22;10115;50.906;4.438;2023-01-30T01:38:32;5.20;99.90
19906;DHT22;10115;50.906;4.438;2023-01-30T01:40:58;5.10;99.90
19906;DHT22;10115;50.906;4.438;2023-01-30T01:43:32;5.20;99.90
19906;DHT22;10115;50.906;4.438;2023-01-30T01:46:13;5.20;99.90
19906;DHT22;10115;50.906;4.438;2023-01-30T01:48:48;5.20;99.90
19906;DHT22;10115;50.906;4.438;2023-01-30T01:51:50;5.20;99.90
19906;DHT22;10115;50.906;4.438;2023-01-30T01:57:07;5.30;99.90
19906;DHT22;10115;50.906;4.438;2023-01-30T01:59:47;5.30;99.90
19906;DHT22;10115;50.906;4.438;2023-01-30T02:02:14;5.30;99.90
19906;DHT22;10115;50.906;4.438;2023-01-30T02:04:44;5.30;99.90
19906;DHT22;10115;50.906;4.438;2023-01-30T02:07:39;5.30;99.90
19906;DHT22;10115;50.906;4.438;2023-01-30T02:10:08;5.40;99.90
19906;DHT22;10115;50.906;4.438;2023-01-30T02:12:37;5.30;99.90
19906;DHT22;10115;50.906;4.438;2023-01-30T02:15:05;5.30;99.90
19906;DHT22;10115;50.906;4.438;2023-01-30T02:17:30;5.40;99.90
19906;DHT22;10115;50.906;4.438;2023-01-30T02:20:02;5.40;99.90
19906;DHT22;10115;50.906;4.438;2023-01-30T02:33:23;5.60;99.90
19906;DHT22;10115;50.906;4.438;2023-01-30T02:36:03;5.60;99.90
19906;DHT22;10115;50.906;4.438;2023-01-30T02:38:58;5.70;99.90
19906;DHT22;10115;50.906;4.438;2023-01-30T02:50:20;5.70;99.90
19906;DHT22;10115;50.906;4.438;2023-01-30T02:52:47;5.70;99.90
19906;DHT22;10115;50.906;4.438;2023-01-30T02:55:21;5.70;99.90
19906;DHT22;10115;50.906;4.438;2023-01-30T02:57:47;5.80;99.90
19906;DHT22;10115;50.906;4.438;2023-01-30T03:00:16;5.70;99.90
19906;DHT22;10115;50.906;4.438;2023-01-30T03:05:27;5.70;99.90
19906;DHT22;10115;50.906;4.438;2023-01-30T03:11:07;5.70;99.90
19906;DHT22;10115;50.906;4.438;2023-01-30T03:16:17;5.80;99.90
19906;DHT22;10115;50.906;4.438;2023-01-30T03:18:44;5.80;99.90
19906;DHT22;10115;50.906;4.438;2023-01-30T03:21:11;5.90;99.90
19906;DHT22;10115;50.906;4.438;2023-01-30T03:23:37;5.90;99.90
19906;DHT22;10115;50.906;4.438;2023-01-30T03:26:04;5.90;99.90
19906;DHT22;10115;50.906;4.438;2023-01-30T03:28:31;5.90;99.90
19906;DHT22;10115;50.906;4.438;2023-01-30T03:30:57;5.90;99.90
19906;DHT22;10115;50.906;4.438;2023-01-30T03:33:23;5.90;99.90
19906;DHT22;10115;50.906;4.438;2023-01-30T03:35:50;6.00;99.90
19906;DHT22;10115;50.906;4.438;2023-01-30T03:38:16;6.00;99.90
19906;DHT22;10115;50.906;4.438;2023-01-30T03:40:42;6.00;99.90
19906;DHT22;10115;50.906;4.438;2023-01-30T03:43:08;6.10;99.90
19906;DHT22;10115;50.906;4.438;2023-01-30T03:45:34;6.10;99.90
19906;DHT22;10115;50.906;4.438;2023-01-30T03:48:00;6.10;99.90
19906;DHT22;10115;50.906;4.438;2023-01-30T03:50:25;6.10;99.90
19906;DHT22;10115;50.906;4.438;2023-01-30T03:52:51;6.10;99.90
19906;DHT22;10115;50.906;4.438;2023-01-30T03:55:17;6.20;99.90
19906;DHT22;10115;50.906;4.438;2023-01-30T03:57:42;6.20;99.90
19906;DHT22;10115;50.906;4.438;2023-01-30T04:00:08;6.20;99.90
19906;DHT22;10115;50.906;4.438;2023-01-30T04:02:34;6.10;99.90
19906;DHT22;10115;50.906;4.438;2023-01-30T04:05:00;6.10;99.90
19906;DHT22;10115;50.906;4.438;2023-01-30T04:07:28;6.10;99.90
19906;DHT22;10115;50.906;4.438;2023-01-30T04:09:54;6.10;99.90
19906;DHT22;10115;50.906;4.438;2023-01-30T04:12:19;6.10;99.90
19906;DHT22;10115;50.906;4.438;2023-01-30T04:14:45;6.10;99.90
19906;DHT22;10115;50.906;4.438;2023-01-30T04:17:11;6.10;99.90
19906;DHT22;10115;50.906;4.438;2023-01-30T04:19:36;6.10;99.90
19906;DHT22;10115;50.906;4.438;2023-01-30T04:22:02;6.10;99.90
19906;DHT22;10115;50.906;4.438;2023-01-30T04:24:28;6.10;99.90
19906;DHT22;10115;50.906;4.438;2023-01-30T04:26:53;6.10;99.90
19906;DHT22;10115;50.906;4.438;2023-01-30T04:29:19;6.10;99.90
19906;DHT22;10115;50.906;4.438;2023-01-30T04:31:44;6.10;99.90
19906;DHT22;10115;50.906;4.438;2023-01-30T04:34:10;6.10;99.90
19906;DHT22;10115;50.906;4.438;2023-01-30T04:36:36;6.10;99.90
19906;DHT22;10115;50.906;4.438;2023-01-30T04:39:02;6.10;99.90
19906;DHT22;10115;50.906;4.438;2023-01-30T04:41:27;6.10;99.90
19906;DHT22;10115;50.906;4.438;2023-01-30T04:43:53;6.10;99.90
19906;DHT22;10115;50.906;4.438;2023-01-30T04:46:19;6.10;99.90
19906;DHT22;10115;50.906;4.438;2023-01-30T04:48:44;6.10;99.90
19906;DHT22;10115;50.906;4.438;2023-01-30T04:51:10;6.20;99.90
19906;DHT22;10115;50.906;4.438;2023-01-30T04:53:36;6.20;99.90
19906;DHT22;10115;50.906;4.438;2023-01-30T04:56:01;6.20;99.90
19906;DHT22;10115;50.906;4.438;2023-01-30T04:58:27;6.20;99.90
19906;DHT22;10115;50.906;4.438;2023-01-30T05:00:53;6.20;99.90
19906;DHT22;10115;50.906;4.438;2023-01-30T05:03:18;6.20;99.90
19906;DHT22;10115;50.906;4.438;2023-01-30T05:05:47;6.30;99.90
19906;DHT22;10115;50.906;4.438;2023-01-30T05:08:14;6.30;99.90
19906;DHT22;10115;50.906;4.438;2023-01-30T05:10:40;6.30;99.90
19906;DHT22;10115;50.906;4.438;2023-01-30T05:13:06;6.40;99.90
19906;DHT22;10115;50.906;4.438;2023-01-30T05:15:35;6.40;99.90
19906;DHT22;10115;50.906;4.438;2023-01-30T05:18:00;6.40;99.90
19906;DHT22;10115;50.906;4.438;2023-01-30T05:20:26;6.40;99.90
19906;DHT22;10115;50.906;4.438;2023-01-30T05:22:51;6.40;99.90
19906;DHT22;10115;50.906;4.438;2023-01-30T05:25:20;6.40;99.90
19906;DHT22;10115;50.906;4.438;2023-01-30T05:27:46;6.40;99.90
19906;DHT22;10115;50.906;4.438;2023-01-30T05:30:11;6.40;99.90
19906;DHT22;10115;50.906;4.438;2023-01-30T05:32:37;6.50;99.90
19906;DHT22;10115;50.906;4.438;2023-01-30T05:35:03;6.50;99.90
19906;DHT22;10115;50.906;4.438;2023-01-30T05:37:29;6.50;99.90
19906;DHT22;10115;50.906;4.438;2023-01-30T05:39:54;6.50;99.90
19906;DHT22;10115;50.906;4.438;2023-01-30T05:42:20;6.50;99.90
19906;DHT22;10115;50.906;4.438;2023-01-30T05:44:45;6.60;99.90
19906;DHT22;10115;50.906;4.438;2023-01-30T05:47:11;6.60;99.90
19906;DHT22;10115;50.906;4.438;2023-01-30T05:49:37;6.60;99.90
19906;DHT22;10115;50.906;4.438;2023-01-30T05:52:02;6.60;99.90
19906;DHT22;10115;50.906;4.438;2023-01-30T05:54:28;6.60;99.90
19906;DHT22;10115;50.906;4.438;2023-01-30T05:56:54;6.70;99.90
19906;DHT22;10115;50.906;4.438;2023-01-30T05:59:20;6.70;99.90
19906;DHT22;10115;50.906;4.438;2023-01-30T06:01:45;6.70;99.90
19906;DHT22;10115;50.906;4.438;2023-01-30T06:04:11;6.70;99.90
19906;DHT22;10115;50.906;4.438;2023-01-30T06:06:37;6.70;99.90
19906;DHT22;10115;50.906;4.438;2023-01-30T06:09:03;6.80;99.90
19906;DHT22;10115;50.906;4.438;2023-01-30T06:11:29;6.80;99.90
19906;DHT22;10115;50.906;4.438;2023-01-30T06:13:54;6.80;99.90
19906;DHT22;10115;50.906;4.438;2023-01-30T06:16:20;6.90;99.90
19906;DHT22;10115;50.906;4.438;2023-01-30T06:18:46;6.90;99.90
19906;DHT22;10115;50.906;4.438;2023-01-30T06:21:12;7.00;99.90
19906;DHT22;10115;50.906;4.438;2023-01-30T06:23:39;7.00;99.90
19906;DHT22;10115;50.906;4.438;2023-01-30T06:26:05;6.90;99.90
19906;DHT22;10115;50.906;4.438;2023-01-30T06:28:31;7.00;99.90
19906;DHT22;10115;50.906;4.438;2023-01-30T06:30:57;7.00;99.90
19906;DHT22;10115;50.906;4.438;2023-01-30T06:33:22;7.00;99.90
19906;DHT22;10115;50.906;4.438;2023-01-30T06:35:49;7.10;99.90
19906;DHT22;10115;50.906;4.438;2023-01-30T06:38:16;7.00;99.90
19906;DHT22;10115;50.906;4.438;2023-01-30T06:40:49;7.10;99.90
19906;DHT22;10115;50.906;4.438;2023-01-30T06:43:15;7.10;99.90
19906;DHT22;10115;50.906;4.438;2023-01-30T06:45:41;7.00;99.90
19906;DHT22;10115;50.906;4.438;2023-01-30T06:48:07;7.00;99.90
19906;DHT22;10115;50.906;4.438;2023-01-30T06:50:33;7.10;99.90
19906;DHT22;10115;50.906;4.438;2023-01-30T06:53:04;7.10;99.90
19906;DHT22;10115;50.906;4.438;2023-01-30T06:55:32;7.10;99.90
19906;DHT22;10115;50.906;4.438;2023-01-30T06:58:12;7.10;99.90
19906;DHT22;10115;50.906;4.438;2023-01-30T07:00:40;7.10;99.90
19906;DHT22;10115;50.906;4.438;2023-01-30T07:03:15;7.10;99.90
19906;DHT22;10115;50.906;4.438;2023-01-30T07:05:41;7.00;99.90
19906;DHT22;10115;50.906;4.438;2023-01-30T07:08:08;7.10;99.90
19906;DHT22;10115;50.906;4.438;2023-01-30T07:10:34;7.00;99.90
19906;DHT22;10115;50.906;4.438;2023-01-30T07:13:01;7.10;99.90
19906;DHT22;10115;50.906;4.438;2023-01-30T07:15:27;7.10;99.90
19906;DHT22;10115;50.906;4.438;2023-01-30T07:17:53;7.10;99.90
19906;DHT22;10115;50.906;4.438;2023-01-30T07:20:19;7.20;99.90
19906;DHT22;10115;50.906;4.438;2023-01-30T07:22:52;7.20;99.90
19906;DHT22;10115;50.906;4.438;2023-01-30T07:25:19;7.20;99.90
19906;DHT22;10115;50.906;4.438;2023-01-30T07:27:55;7.20;99.90
19906;DHT22;10115;50.906;4.438;2023-01-30T07:30:21;7.30;99.90
19906;DHT22;10115;50.906;4.438;2023-01-30T07:32:56;7.30;99.90
19906;DHT22;10115;50.906;4.438;2023-01-30T07:35:23;7.30;99.90
19906;DHT22;10115;50.906;4.438;2023-01-30T07:37:50;7.40;99.90
19906;DHT22;10115;50.906;4.438;2023-01-30T07:40:18;7.40;99.90
19906;DHT22;10115;50.906;4.438;2023-01-30T07:42:58;7.40;99.90
19906;DHT22;10115;50.906;4.438;2023-01-30T07:45:24;7.40;99.90
19906;DHT22;10115;50.906;4.438;2023-01-30T07:47:52;7.40;99.90
19906;DHT22;10115;50.906;4.438;2023-01-30T07:50:18;7.40;99.90
19906;DHT22;10115;50.906;4.438;2023-01-30T07:52:44;7.40;99.90
19906;DHT22;10115;50.906;4.438;2023-01-30T07:55:09;7.40;99.90
19906;DHT22;10115;50.906;4.438;2023-01-30T07:57:35;7.40;99.90
19906;DHT22;10115;50.906;4.438;2023-01-30T08:00:01;7.40;99.90
19906;DHT22;10115;50.906;4.438;2023-01-30T08:02:27;7.40;99.90
19906;DHT22;10115;50.906;4.438;2023-01-30T08:04:53;7.50;99.90
19906;DHT22;10115;50.906;4.438;2023-01-30T08:07:18;7.50;99.90
19906;DHT22;10115;50.906;4.438;2023-01-30T08:09:44;7.40;99.90
19906;DHT22;10115;50.906;4.438;2023-01-30T08:12:10;7.50;99.90
19906;DHT22;10115;50.906;4.438;2023-01-30T08:14:35;7.50;99.90
19906;DHT22;10115;50.906;4.438;2023-01-30T08:17:01;7.40;99.90
19906;DHT22;10115;50.906;4.438;2023-01-30T08:19:26;7.40;99.90
19906;DHT22;10115;50.906;4.438;2023-01-30T08:21:52;7.40;99.90
19906;DHT22;10115;50.906;4.438;2023-01-30T08:24:18;7.40;99.90
19906;DHT22;10115;50.906;4.438;2023-01-30T08:26:43;7.40;99.90
19906;DHT22;10115;50.906;4.438;2023-01-30T08:29:09;7.40;99.90
19906;DHT22;10115;50.906;4.438;2023-01-30T08:31:35;7.40;99.90
19906;DHT22;10115;50.906;4.438;2023-01-30T08:34:00;7.30;99.90
19906;DHT22;10115;50.906;4.438;2023-01-30T08:36:26;7.20;99.90
19906;DHT22;10115;50.906;4.438;2023-01-30T08:38:52;7.30;99.90
19906;DHT22;10115;50.906;4.438;2023-01-30T08:41:17;7.30;99.90
19906;DHT22;10115;50.906;4.438;2023-01-30T08:43:43;7.30;99.90
19906;DHT22;10115;50.906;4.438;2023-01-30T08:46:09;7.30;99.90
19906;DHT22;10115;50.906;4.438;2023-01-30T08:48:34;7.30;99.90
19906;DHT22;10115;50.906;4.438;2023-01-30T08:51:02;7.30;99.90
19906;DHT22;10115;50.906;4.438;2023-01-30T08:53:27;7.30;99.90
19906;DHT22;10115;50.906;4.438;2023-01-30T08:55:53;7.30;99.90
19906;DHT22;10115;50.906;4.438;2023-01-30T08:58:20;7.30;99.90
19906;DHT22;10115;50.906;4.438;2023-01-30T09:00:45;7.40;99.90
19906;DHT22;10115;50.906;4.438;2023-01-30T09:03:13;7.40;99.90
19906;DHT22;10115;50.906;4.438;2023-01-30T09:05:38;7.40;99.90
19906;DHT22;10115;50.906;4.438;2023-01-30T09:08:04;7.40;99.90
19906;DHT22;10115;50.906;4.438;2023-01-30T09:10:30;7.40;99.90
19906;DHT22;10115;50.906;4.438;2023-01-30T09:12:56;7.40;99.90
19906;DHT22;10115;50.906;4.438;2023-01-30T09:15:22;7.40;99.90
19906;DHT22;10115;50.906;4.438;2023-01-30T09:17:47;7.40;99.90
19906;DHT22;10115;50.906;4.438;2023-01-30T09:20:13;7.40;99.90
19906;DHT22;10115;50.906;4.438;2023-01-30T09:22:39;7.50;99.90
19906;DHT22;10115;50.906;4.438;2023-01-30T09:25:05;7.50;99.90
19906;DHT22;10115;50.906;4.438;2023-01-30T09:27:31;7.50;99.90
19906;DHT22;10115;50.906;4.438;2023-01-30T09:29:57;7.60;99.90
19906;DHT22;10115;50.906;4.438;2023-01-30T09:32:23;7.60;99.90
19906;DHT22;10115;50.906;4.438;2023-01-30T09:34:48;7.60;99.90
19906;DHT22;10115;50.906;4.438;2023-01-30T09:37:14;7.60;99.90
19906;DHT22;10115;50.906;4.438;2023-01-30T09:39:40;7.70;99.90
19906;DHT22;10115;50.906;4.438;2023-01-30T09:50:43;7.80;99.90
19906;DHT22;10115;50.906;4.438;2023-01-30T09:56:05;7.90;99.90
19906;DHT22;10115;50.906;4.438;2023-01-30T09:58:54;7.90;99.90
19906;DHT22;10115;50.906;4.438;2023-01-30T10:01:28;7.90;99.90
19906;DHT22;10115;50.906;4.438;2023-01-30T10:04:05;7.90;99.90
19906;DHT22;10115;50.906;4.438;2023-01-30T10:06:38;8.00;99.90
19906;DHT22;10115;50.906;4.438;2023-01-30T10:21:22;8.30;99.90
19906;DHT22;10115;50.906;4.438;2023-01-30T10:24:13;8.10;99.90
19906;DHT22;10115;50.906;4.438;2023-01-30T10:26:44;8.10;99.90
19906;DHT22;10115;50.906;4.438;2023-01-30T10:29:14;8.10;99.90
19906;DHT22;10115;50.906;4.438;2023-01-30T10:31:48;8.20;99.90
19906;DHT22;10115;50.906;4.438;2023-01-30T10:34:34;8.20;99.90
19906;DHT22;10115;50.906;4.438;2023-01-30T10:39:53;8.20;99.90
19906;DHT22;10115;50.906;4.438;2023-01-30T10:42:35;8.20;99.90
19906;DHT22;10115;50.906;4.438;2023-01-30T10:45:15;8.20;99.90
19906;DHT22;10115;50.906;4.438;2023-01-30T10:53:36;8.50;99.90
19906;DHT22;10115;50.906;4.438;2023-01-30T10:56:11;8.60;99.90
19906;DHT22;10115;50.906;4.438;2023-01-30T11:02:25;8.60;99.90
19906;DHT22;10115;50.906;4.438;2023-01-30T11:04:58;8.60;99.90
19906;DHT22;10115;50.906;4.438;2023-01-30T11:07:29;8.60;99.90
19906;DHT22;10115;50.906;4.438;2023-01-30T11:09:57;8.50;99.90
19906;DHT22;10115;50.906;4.438;2023-01-30T11:12:23;8.50;99.90
19906;DHT22;10115;50.906;4.438;2023-01-30T11:14:59;8.50;99.90
19906;DHT22;10115;50.906;4.438;2023-01-30T11:17:36;8.60;99.90
19906;DHT22;10115;50.906;4.438;2023-01-30T11:20:16;8.50;99.90
19906;DHT22;10115;50.906;4.438;2023-01-30T11:22:48;8.60;99.90
19906;DHT22;10115;50.906;4.438;2023-01-30T11:25:17;8.60;99.90
19906;DHT22;10115;50.906;4.438;2023-01-30T11:27:51;8.60;99.90
19906;DHT22;10115;50.906;4.438;2023-01-30T11:30:19;8.70;99.90
19906;DHT22;10115;50.906;4.438;2023-01-30T11:32:47;8.70;99.90
19906;DHT22;10115;50.906;4.438;2023-01-30T11:37:41;8.70;99.90
19906;DHT22;10115;50.906;4.438;2023-01-30T11:43:03;8.60;99.90
19906;DHT22;10115;50.906;4.438;2023-01-30T11:45:34;8.50;99.90
19906;DHT22;10115;50.906;4.438;2023-01-30T11:48:09;8.60;99.90
19906;DHT22;10115;50.906;4.438;2023-01-30T11:50:41;8.50;99.90
19906;DHT22;10115;50.906;4.438;2023-01-30T11:56:05;8.50;99.90
19906;DHT22;10115;50.906;4.438;2023-01-30T11:58:34;8.50;99.90
19906;DHT22;10115;50.906;4.438;2023-01-30T12:01:01;8.60;99.90
19906;DHT22;10115;50.906;4.438;2023-01-30T12:03:27;8.60;99.90
19906;DHT22;10115;50.906;4.438;2023-01-30T12:05:56;8.60;99.90
19906;DHT22;10115;50.906;4.438;2023-01-30T12:08:37;8.50;99.90
19906;DHT22;10115;50.906;4.438;2023-01-30T12:12:02;8.50;99.90
19906;DHT22;10115;50.906;4.438;2023-01-30T12:17:21;8.60;99.90
19906;DHT22;10115;50.906;4.438;2023-01-30T12:20:16;8.60;99.90
19906;DHT22;10115;50.906;4.438;2023-01-30T12:23:07;8.50;99.90
19906;DHT22;10115;50.906;4.438;2023-01-30T12:30:01;8.50;99.90
19906;DHT22;10115;50.906;4.438;2023-01-30T12:32:04;8.60;99.90
19906;DHT22;10115;50.906;4.438;2023-01-30T12:34:31;8.70;99.90
19906;DHT22;10115;50.906;4.438;2023-01-30T12:45:34;8.50;99.90
19906;DHT22;10115;50.906;4.438;2023-01-30T12:48:11;8.50;99.90
19906;DHT22;10115;50.906;4.438;2023-01-30T12:50:56;8.40;99.90
19906;DHT22;10115;50.906;4.438;2023-01-30T12:56:38;8.40;99.90
19906;DHT22;10115;50.906;4.438;2023-01-30T13:26:10;8.50;99.90
19906;DHT22;10115;50.906;4.438;2023-01-30T13:28:40;8.60;99.90
19906;DHT22;10115;50.906;4.438;2023-01-30T13:31:10;8.60;99.90
19906;DHT22;10115;50.906;4.438;2023-01-30T13:33:40;8.50;99.90
19906;DHT22;10115;50.906;4.438;2023-01-30T13:36:19;8.50;99.90
19906;DHT22;10115;50.906;4.438;2023-01-30T13:39:00;8.50;99.90
19906;DHT22;10115;50.906;4.438;2023-01-30T13:41:34;8.60;99.90
19906;DHT22;10115;50.906;4.438;2023-01-30T13:44:07;8.60;99.90
19906;DHT22;10115;50.906;4.438;2023-01-30T13:46:37;8.70;99.90
19906;DHT22;10115;50.906;4.438;2023-01-30T13:49:11;8.80;99.90
19906;DHT22;10115;50.906;4.438;2023-01-30T13:56:49;8.70;99.90
19906;DHT22;10115;50.906;4.438;2023-01-30T14:10:15;8.80;99.90
19906;DHT22;10115;50.906;4.438;2023-01-30T14:12:46;8.70;99.90
19906;DHT22;10115;50.906;4.438;2023-01-30T14:20:29;8.60;99.90
19906;DHT22;10115;50.906;4.438;2023-01-30T14:25:53;8.60;99.90
19906;DHT22;10115;50.906;4.438;2023-01-30T14:30:56;8.70;99.90
19906;DHT22;10115;50.906;4.438;2023-01-30T14:38:32;8.60;99.90
19906;DHT22;10115;50.906;4.438;2023-01-30T14:49:15;8.70;99.90
19906;DHT22;10115;50.906;4.438;2023-01-30T14:51:45;8.70;99.90
19906;DHT22;10115;50.906;4.438;2023-01-30T14:56:54;8.40;99.90
19906;DHT22;10115;50.906;4.438;2023-01-30T15:04:44;8.40;99.90
19906;DHT22;10115;50.906;4.438;2023-01-30T15:07:14;8.30;99.90
19906;DHT22;10115;50.906;4.438;2023-01-30T15:09:43;8.20;99.90
19906;DHT22;10115;50.906;4.438;2023-01-30T15:31:59;8.20;99.90
19906;DHT22;10115;50.906;4.438;2023-01-30T15:34:32;8.20;99.90
19906;DHT22;10115;50.906;4.438;2023-01-30T15:36:59;8.20;99.90
19906;DHT22;10115;50.906;4.438;2023-01-30T15:39:26;8.20;99.90
19906;DHT22;10115;50.906;4.438;2023-01-30T15:42:04;8.20;99.90
19906;DHT22;10115;50.906;4.438;2023-01-30T15:50:05;8.00;99.90
19906;DHT22;10115;50.906;4.438;2023-01-30T15:52:40;8.00;99.90
19906;DHT22;10115;50.906;4.438;2023-01-30T15:55:32;8.00;99.90
19906;DHT22;10115;50.906;4.438;2023-01-30T15:58:08;8.00;99.90
19906;DHT22;10115;50.906;4.438;2023-01-30T16:00:38;8.00;99.90
19906;DHT22;10115;50.906;4.438;2023-01-30T16:03:10;8.00;99.90
19906;DHT22;10115;50.906;4.438;2023-01-30T16:05:49;7.90;99.90
19906;DHT22;10115;50.906;4.438;2023-01-30T16:08:24;7.90;99.90
19906;DHT22;10115;50.906;4.438;2023-01-30T16:10:50;7.90;99.90
19906;DHT22;10115;50.906;4.438;2023-01-30T16:13:17;7.90;99.90
19906;DHT22;10115;50.906;4.438;2023-01-30T16:15:48;7.90;99.90
19906;DHT22;10115;50.906;4.438;2023-01-30T16:21:02;7.80;99.90
19906;DHT22;10115;50.906;4.438;2023-01-30T16:26:16;7.80;99.90
19906;DHT22;10115;50.906;4.438;2023-01-30T16:28:43;7.80;99.90
19906;DHT22;10115;50.906;4.438;2023-01-30T16:31:09;7.80;99.90
19906;DHT22;10115;50.906;4.438;2023-01-30T16:33:36;7.80;99.90
19906;DHT22;10115;50.906;4.438;2023-01-30T16:36:04;7.70;99.90
19906;DHT22;10115;50.906;4.438;2023-01-30T16:38:43;7.70;99.90
19906;DHT22;10115;50.906;4.438;2023-01-30T16:44:20;7.70;99.90
19906;DHT22;10115;50.906;4.438;2023-01-30T16:47:04;7.70;99.90
19906;DHT22;10115;50.906;4.438;2023-01-30T16:52:37;7.70;99.90
19906;DHT22;10115;50.906;4.438;2023-01-30T16:55:19;7.70;99.90
19906;DHT22;10115;50.906;4.438;2023-01-30T16:57:54;7.70;99.90
19906;DHT22;10115;50.906;4.438;2023-01-30T17:00:29;7.70;99.90
19906;DHT22;10115;50.906;4.438;2023-01-30T17:03:01;7.60;99.90
19906;DHT22;10115;50.906;4.438;2023-01-30T17:05:30;7.60;99.90
19906;DHT22;10115;50.906;4.438;2023-01-30T17:08:01;7.70;99.90
19906;DHT22;10115;50.906;4.438;2023-01-30T17:12:54;7.60;99.90
19906;DHT22;10115;50.906;4.438;2023-01-30T17:17:45;7.60;99.90
19906;DHT22;10115;50.906;4.438;2023-01-30T17:20:13;7.60;99.90
19906;DHT22;10115;50.906;4.438;2023-01-30T17:22:44;7.60;99.90
19906;DHT22;10115;50.906;4.438;2023-01-30T17:25:22;7.50;99.90
19906;DHT22;10115;50.906;4.438;2023-01-30T17:27:51;7.50;99.90
19906;DHT22;10115;50.906;4.438;2023-01-30T17:30:17;7.50;99.90
19906;DHT22;10115;50.906;4.438;2023-01-30T17:32:43;7.50;99.90
19906;DHT22;10115;50.906;4.438;2023-01-30T17:35:10;7.50;99.90
19906;DHT22;10115;50.906;4.438;2023-01-30T17:37:36;7.50;99.90
19906;DHT22;10115;50.906;4.438;2023-01-30T17:40:08;7.50;99.90
19906;DHT22;10115;50.906;4.438;2023-01-30T17:42:35;7.40;99.90
19906;DHT22;10115;50.906;4.438;2023-01-30T17:45:00;7.40;99.90
19906;DHT22;10115;50.906;4.438;2023-01-30T17:47:32;7.30;99.90
19906;DHT22;10115;50.906;4.438;2023-01-30T17:49:58;7.30;99.90
19906;DHT22;10115;50.906;4.438;2023-01-30T17:52:23;7.30;99.90
19906;DHT22;10115;50.906;4.438;2023-01-30T17:54:49;7.30;99.90
19906;DHT22;10115;50.906;4.438;2023-01-30T17:57:15;7.30;99.90
19906;DHT22;10115;50.906;4.438;2023-01-30T17:59:41;7.30;99.90
19906;DHT22;10115;50.906;4.438;2023-01-30T18:02:09;7.30;99.90
19906;DHT22;10115;50.906;4.438;2023-01-30T18:04:34;7.30;99.90
19906;DHT22;10115;50.906;4.438;2023-01-30T18:07:02;7.20;99.90
19906;DHT22;10115;50.906;4.438;2023-01-30T18:09:30;7.20;99.90
19906;DHT22;10115;50.906;4.438;2023-01-30T18:11:56;7.20;99.90
19906;DHT22;10115;50.906;4.438;2023-01-30T18:14:22;7.10;99.90
19906;DHT22;10115;50.906;4.438;2023-01-30T18:16:47;7.00;99.90
19906;DHT22;10115;50.906;4.438;2023-01-30T18:19:15;7.00;99.90
19906;DHT22;10115;50.906;4.438;2023-01-30T18:21:48;6.90;99.90
19906;DHT22;10115;50.906;4.438;2023-01-30T18:24:14;6.80;99.90
19906;DHT22;10115;50.906;4.438;2023-01-30T18:26:40;6.80;99.90
19906;DHT22;10115;50.906;4.438;2023-01-30T18:29:07;6.80;99.90
19906;DHT22;10115;50.906;4.438;2023-01-30T18:31:34;6.80;99.90
19906;DHT22;10115;50.906;4.438;2023-01-30T18:33:59;6.70;99.90
19906;DHT22;10115;50.906;4.438;2023-01-30T18:36:25;6.70;99.90
19906;DHT22;10115;50.906;4.438;2023-01-30T18:38:51;6.70;99.90
19906;DHT22;10115;50.906;4.438;2023-01-30T18:41:22;6.60;99.90
19906;DHT22;10115;50.906;4.438;2023-01-30T18:43:57;6.50;99.90
19906;DHT22;10115;50.906;4.438;2023-01-30T18:46:24;6.60;99.90
19906;DHT22;10115;50.906;4.438;2023-01-30T18:48:50;6.60;99.90
19906;DHT22;10115;50.906;4.438;2023-01-30T18:53:48;6.70;99.90
19906;DHT22;10115;50.906;4.438;2023-01-30T18:56:35;6.70;99.90
19906;DHT22;10115;50.906;4.438;2023-01-30T18:59:04;6.60;99.90
19906;DHT22;10115;50.906;4.438;2023-01-30T19:01:34;6.60;99.90
19906;DHT22;10115;50.906;4.438;2023-01-30T19:04:02;6.60;99.90
19906;DHT22;10115;50.906;4.438;2023-01-30T19:06:28;6.70;99.90
19906;DHT22;10115;50.906;4.438;2023-01-30T19:08:58;6.70;99.90
19906;DHT22;10115;50.906;4.438;2023-01-30T19:11:24;6.70;99.90
19906;DHT22;10115;50.906;4.438;2023-01-30T19:14:08;6.70;99.90
19906;DHT22;10115;50.906;4.438;2023-01-30T19:16:35;6.70;99.90
19906;DHT22;10115;50.906;4.438;2023-01-30T19:19:02;6.60;99.90
19906;DHT22;10115;50.906;4.438;2023-01-30T19:21:27;6.60;99.90
19906;DHT22;10115;50.906;4.438;2023-01-30T19:23:53;6.80;99.90
19906;DHT22;10115;50.906;4.438;2023-01-30T19:26:21;7.00;99.90
19906;DHT22;10115;50.906;4.438;2023-01-30T19:28:48;6.80;99.90